| time (UTC) | temp F | wind direction | speed MPH | gust MPH | rain 1hr in | rain 24hr in | rain mn in | humidity % | barometer mb |
| 20260906115609 | 76 | 0 | 0.0 | 0.0 | 0.00 | 0.00 | 0.00 | 96 | |
| 20260906114709 | 76 | 0 | 0.0 | 0.0 | 0.00 | 0.00 | 0.00 | 96 | |
| 20260906113809 | 76 | 0 | 0.0 | 0.0 | 0.00 | 0.00 | 0.00 | 96 | |
| 20260906112909 | 76 | 0 | 0.0 | 0.0 | 0.00 | 0.00 | 0.00 | 96 | |
| 20260906112009 | 76 | 123 | 0.0 | 1.0 | 0.00 | 0.00 | 0.00 | 96 | |
| 20260906111109 | 76 | 0 | 0.0 | 0.0 | 0.00 | 0.00 | 0.00 | 96 | |
| 20260906110209 | 76 | 0 | 0.0 | 0.0 | 0.00 | 0.00 | 0.00 | 96 | |
| 20260906105309 | 76 | 0 | 0.0 | 0.0 | 0.00 | 0.00 | 0.00 | 96 | |
| 20260906104409 | 76 | 0 | 0.0 | 0.0 | 0.00 | 0.00 | 0.00 | 96 | |
| 20260906103509 | 76 | 123 | 0.0 | 1.0 | 0.00 | 0.00 | 0.00 | 96 | |
| 20260906102609 | 76 | 0 | 0.0 | 0.0 | 0.00 | 0.00 | 0.00 | 96 | |
| 20260906101709 | 76 | 0 | 0.0 | 0.0 | 0.00 | 0.00 | 0.00 | 96 | |
| 20260906100809 | 76 | 0 | 0.0 | 0.0 | 0.00 | 0.00 | 0.00 | 96 | |
| 20260906095909 | 76 | 0 | 0.0 | 0.0 | 0.00 | 0.00 | 0.00 | 96 | |
| 20260906095009 | 76 | 0 | 0.0 | 0.0 | 0.00 | 0.00 | 0.00 | 96 | |
| 20260906094109 | 76 | 0 | 0.0 | 0.0 | 0.00 | 0.00 | 0.00 | 96 | |
| 20260906093209 | 76 | 0 | 0.0 | 0.0 | 0.00 | 0.00 | 0.00 | 96 | |
| 20260906092309 | 76 | 0 | 0.0 | 0.0 | 0.00 | 0.00 | 0.00 | 96 | |
| 20260906090509 | 76 | 0 | 0.0 | 0.0 | 0.00 | 0.00 | 0.00 | 96 | |
| 20260906085609 | 77 | 0 | 0.0 | 0.0 | 0.00 | 0.00 | 0.00 | 96 | |
| 20260906084709 | 77 | 0 | 0.0 | 0.0 | 0.00 | 0.00 | 0.00 | 96 | |
| 20260906083809 | 77 | 0 | 0.0 | 0.0 | 0.00 | 0.00 | 0.00 | 96 | |
| 20260906082909 | 77 | 0 | 0.0 | 0.0 | 0.00 | 0.00 | 0.00 | 96 | |
| 20260906082009 | 77 | 123 | 0.0 | 1.0 | 0.00 | 0.00 | 0.00 | 96 | |
| 20260906080209 | 77 | 123 | 0.0 | 1.0 | 0.00 | 0.00 | 0.00 | 96 | |
| 20260906075309 | 77 | 123 | 0.0 | 1.0 | 0.00 | 0.00 | 0.00 | 96 | |
| 20260906074409 | 77 | 123 | 0.0 | 1.0 | 0.00 | 0.00 | 0.00 | 96 | |
| 20260906073509 | 77 | 123 | 0.0 | 1.0 | 0.00 | 0.00 | 0.00 | 96 | |
| 20260906072609 | 77 | 73 | 0.0 | 2.0 | 0.00 | 0.00 | 0.00 | 96 | |
| 20260906071709 | 77 | 0 | 0.0 | 0.0 | 0.00 | 0.00 | 0.00 | 95 | |
| 20260906070809 | 78 | 0 | 0.0 | 0.0 | 0.00 | 0.00 | 0.00 | 96 | |
| 20260906065909 | 78 | 0 | 0.0 | 0.0 | 0.00 | 0.00 | 0.00 | 96 | |
| 20260906065009 | 78 | 0 | 0.0 | 0.0 | 0.00 | 0.00 | 0.00 | 96 | |
| 20260906064109 | 78 | 0 | 0.0 | 0.0 | 0.00 | 0.00 | 0.00 | 95 | |
| 20260906063209 | 78 | 0 | 0.0 | 0.0 | 0.00 | 0.00 | 0.00 | 95 | |
| 20260906062309 | 78 | 0 | 0.0 | 0.0 | 0.00 | 0.00 | 0.00 | 95 | |
| 20260906061409 | 78 | 0 | 0.0 | 0.0 | 0.00 | 0.00 | 0.00 | 95 | |
| 20260906060509 | 78 | 0 | 0.0 | 0.0 | 0.00 | 0.00 | 0.00 | 95 | |
| 20260906055609 | 78 | 0 | 0.0 | 0.0 | 0.00 | 0.00 | 0.00 | 95 | |
| 20260906054709 | 78 | 0 | 0.0 | 0.0 | 0.00 | 0.00 | 0.00 | 95 | |
| 20260906053809 | 78 | 0 | 0.0 | 0.0 | 0.00 | 0.00 | 0.00 | 95 | |
| 20260906052909 | 78 | 0 | 0.0 | 0.0 | 0.00 | 0.00 | 0.00 | 95 | |
| 20260906052009 | 78 | 0 | 0.0 | 0.0 | 0.00 | 0.00 | 0.00 | 95 | |
| 20260906051109 | 78 | 0 | 0.0 | 0.0 | 0.00 | 0.00 | 0.00 | 95 | |
| 20260906050209 | 78 | 0 | 0.0 | 0.0 | 0.00 | 0.00 | 0.00 | 95 | |
| 20260906045309 | 78 | 0 | 0.0 | 0.0 | 0.00 | 0.00 | 0.00 | 95 | |
| 20260906044409 | 78 | 0 | 0.0 | 0.0 | 0.00 | 0.00 | 0.00 | 95 | |
| 20260906043509 | 79 | 0 | 0.0 | 0.0 | 0.00 | 0.00 | 0.00 | 95 | |
| 20260906042609 | 79 | 0 | 0.0 | 0.0 | 0.00 | 0.00 | 0.00 | 95 | |
| 20260906041709 | 79 | 0 | 0.0 | 0.0 | 0.00 | 0.00 | 0.00 | 95 | |
| 20260906040809 | 79 | 0 | 0.0 | 0.0 | 0.00 | 0.00 | 0.00 | 95 | |
| 20260906035909 | 79 | 0 | 0.0 | 0.0 | 0.00 | 0.00 | 0.01 | 94 | |
| 20260906035009 | 79 | 0 | 0.0 | 0.0 | 0.00 | 0.00 | 0.01 | 94 | |
| 20260906034109 | 79 | 0 | 0.0 | 0.0 | 0.00 | 0.00 | 0.01 | 94 | |
| 20260906033209 | 79 | 198 | 0.0 | 2.0 | 0.00 | 0.00 | 0.01 | 94 | |
| 20260906032309 | 79 | 187 | 0.0 | 2.0 | 0.00 | 0.00 | 0.01 | 94 | |
| 20260906030509 | 79 | 0 | 0.0 | 0.0 | 0.00 | 0.00 | 0.01 | 94 | |
| 20260906023809 | 80 | 0 | 0.0 | 0.0 | 0.00 | 0.00 | 0.01 | 93 | |
| 20260906022909 | 80 | 0 | 0.0 | 0.0 | 0.00 | 0.00 | 0.01 | 93 | |
| 20260906022009 | 81 | 0 | 0.0 | 0.0 | 0.00 | 0.00 | 0.01 | 93 | |
| 20260906021109 | 81 | 179 | 0.0 | 2.0 | 0.00 | 0.00 | 0.01 | 92 | |
| 20260906020209 | 81 | 146 | 0.0 | 2.0 | 0.00 | 0.00 | 0.01 | 93 | |
| 20260906014409 | 81 | 139 | 0.0 | 1.0 | 0.00 | 0.00 | 0.01 | 92 | |
| 20260906013509 | 81 | 138 | 0.0 | 1.0 | 0.00 | 0.00 | 0.01 | 92 | |
| 20260906012609 | 81 | 138 | 0.0 | 1.0 | 0.00 | 0.00 | 0.01 | 92 | |
| 20260906011709 | 82 | 136 | 0.0 | 1.0 | 0.00 | 0.00 | 0.01 | 92 | |
| 20260906010809 | 82 | 135 | 0.0 | 1.0 | 0.00 | 0.00 | 0.01 | 92 | |
| 20260906005909 | 82 | 135 | 0.0 | 1.0 | 0.00 | 0.00 | 0.01 | 92 | |
| 20260906005009 | 82 | 0 | 0.0 | 0.0 | 0.00 | 0.00 | 0.01 | 92 | |
| 20260906004109 | 83 | 135 | 0.0 | 2.0 | 0.00 | 0.00 | 0.01 | 91 | |
| 20260906003209 | 83 | 135 | 0.0 | 1.0 | 0.00 | 0.00 | 0.01 | 91 | |
| 20260906001409 | 84 | 195 | 0.0 | 4.0 | 0.00 | 0.00 | 0.01 | 91 | |
| 20260906000509 | 84 | 195 | 0.0 | 2.0 | 0.00 | 0.00 | 0.01 | 91 | |
| 20260905234709 | 84 | 108 | 0.0 | 2.0 | 0.00 | 0.00 | 0.01 | 90 | |
| 20260905232909 | 85 | 0 | 0.0 | 0.0 | 0.00 | 0.00 | 0.01 | 89 | |
| 20260905232009 | 86 | 0 | 0.0 | 0.0 | 0.00 | 0.00 | 0.01 | 89 | |
| 20260905231109 | 87 | 0 | 0.0 | 0.0 | 0.00 | 0.00 | 0.01 | 88 | |
| 20260905230209 | 87 | 0 | 0.0 | 0.0 | 0.00 | 0.00 | 0.01 | 88 | |
| 20260905225309 | 88 | 0 | 0.0 | 0.0 | 0.00 | 0.00 | 0.01 | 87 | |
| 20260905224409 | 88 | 0 | 0.0 | 0.0 | 0.00 | 0.00 | 0.01 | 87 | |
| 20260905223509 | 88 | 0 | 0.0 | 0.0 | 0.00 | 0.00 | 0.01 | 87 | |
| 20260905222609 | 88 | 0 | 0.0 | 0.0 | 0.00 | 0.00 | 0.01 | 85 | |
| 20260905221709 | 89 | 0 | 0.0 | 0.0 | 0.00 | 0.00 | 0.01 | 83 | |
| 20260905220809 | 89 | 0 | 0.0 | 0.0 | 0.00 | 0.00 | 0.01 | 83 | |
| 20260905215909 | 89 | 0 | 0.0 | 0.0 | 0.00 | 0.00 | 0.01 | 84 | |
| 20260905214109 | 90 | 0 | 0.0 | 0.0 | 0.00 | 0.00 | 0.01 | 83 | |
| 20260905213209 | 89 | 0 | 0.0 | 0.0 | 0.00 | 0.00 | 0.01 | 83 | |
| 20260905212309 | 90 | 0 | 0.0 | 0.0 | 0.00 | 0.00 | 0.01 | 82 | |
| 20260905210509 | 90 | 0 | 0.0 | 0.0 | 0.00 | 0.00 | 0.01 | 82 | |
| 20260905205609 | 91 | 127 | 0.0 | 1.0 | 0.00 | 0.00 | 0.01 | 79 | |
| 20260905204709 | 91 | 130 | 1.0 | 8.0 | 0.00 | 0.00 | 0.01 | 78 | |
| 20260905203809 | 91 | 133 | 0.0 | 2.0 | 0.00 | 0.00 | 0.01 | 81 | |
| 20260905202909 | 91 | 122 | 1.0 | 6.0 | 0.00 | 0.00 | 0.01 | 76 | |
| 20260905202009 | 91 | 129 | 1.0 | 5.0 | 0.00 | 0.00 | 0.01 | 77 | |
| 20260905201109 | 91 | 128 | 1.0 | 6.0 | 0.00 | 0.00 | 0.01 | 79 | |
| 20260905200209 | 91 | 128 | 1.0 | 5.0 | 0.00 | 0.00 | 0.01 | 80 | |
| 20260905195309 | 91 | 130 | 1.0 | 5.0 | 0.00 | 0.00 | 0.01 | 78 | |
| 20260905194409 | 92 | 123 | 1.0 | 7.0 | 0.00 | 0.00 | 0.01 | 78 | |
| 20260905193509 | 92 | 127 | 2.0 | 7.0 | 0.00 | 0.00 | 0.01 | 79 | |
| 20260905192609 | 91 | 133 | 1.0 | 6.0 | 0.00 | 0.00 | 0.01 | 79 | |
| 20260905191709 | 91 | 130 | 2.0 | 7.0 | 0.00 | 0.00 | 0.01 | 82 | |
| 20260905190809 | 90 | 129 | 2.0 | 7.0 | 0.00 | 0.00 | 0.01 | 79 | |
| 20260905185909 | 91 | 131 | 1.0 | 6.0 | 0.00 | 0.00 | 0.01 | 77 | |
| 20260905185009 | 91 | 128 | 0.0 | 6.0 | 0.00 | 0.00 | 0.01 | 78 | |
| 20260905184109 | 90 | 127 | 1.0 | 5.0 | 0.00 | 0.00 | 0.01 | 80 | |
| 20260905183209 | 91 | 130 | 1.0 | 5.0 | 0.00 | 0.00 | 0.01 | 77 | |
| 20260905182309 | 91 | 130 | 1.0 | 5.0 | 0.00 | 0.00 | 0.01 | 79 | |
| 20260905175609 | 90 | 131 | 1.0 | 6.0 | 0.00 | 0.00 | 0.01 | 81 | |
| 20260905174709 | 89 | 128 | 1.0 | 7.0 | 0.00 | 0.00 | 0.01 | 84 | |
| 20260905173809 | 89 | 133 | 0.0 | 2.0 | 0.00 | 0.00 | 0.01 | 84 | |
| 20260905172009 | 90 | 132 | 0.0 | 4.0 | 0.00 | 0.00 | 0.01 | 84 | |
| 20260905171109 | 88 | 131 | 1.0 | 6.0 | 0.00 | 0.00 | 0.01 | 84 | |
| 20260905170209 | 88 | 127 | 1.0 | 6.0 | 0.00 | 0.00 | 0.01 | 84 | |
| 20260905165309 | 88 | 132 | 1.0 | 5.0 | 0.00 | 0.00 | 0.01 | 84 | |
| 20260905163509 | 87 | 128 | 1.0 | 10.0 | 0.00 | 0.00 | 0.01 | 86 | |
| 20260905162609 | 85 | 126 | 1.0 | 7.0 | 0.00 | 0.00 | 0.01 | 86 | |
| 20260905161709 | 86 | 133 | 1.0 | 7.0 | 0.00 | 0.00 | 0.01 | 86 | |
| 20260905155909 | 85 | 133 | 0.0 | 4.0 | 0.00 | 0.00 | 0.01 | 87 | |
| 20260905155009 | 86 | 123 | 0.0 | 2.0 | 0.00 | 0.00 | 0.01 | 87 | |
| 20260905154109 | 85 | 140 | 1.0 | 4.0 | 0.00 | 0.00 | 0.01 | 88 | |
| 20260905153209 | 84 | 137 | 0.0 | 2.0 | 0.00 | 0.00 | 0.01 | 88 | |
| 20260905151409 | 84 | 133 | 0.0 | 4.0 | 0.00 | 0.00 | 0.01 | 89 | |
| 20260905145609 | 82 | 132 | 1.0 | 5.0 | 0.00 | 0.00 | 0.01 | 89 | |
| 20260905143809 | 81 | 130 | 1.0 | 6.0 | 0.00 | 0.00 | 0.01 | 91 | |
| 20260905142909 | 81 | 129 | 0.0 | 5.0 | 0.00 | 0.00 | 0.01 | 93 | |
| 20260905142009 | 80 | 126 | 0.0 | 5.0 | 0.00 | 0.00 | 0.01 | 96 | |
| 20260905140209 | 78 | 128 | 0.0 | 4.0 | 0.00 | 0.00 | 0.01 | 97 | |
| 20260905133509 | 77 | 128 | 1.0 | 6.0 | 0.00 | 0.00 | 0.01 | 97 | |
| 20260905132609 | 77 | 142 | 0.0 | 1.0 | 0.00 | 0.00 | 0.01 | 97 | |
| 20260905131709 | 76 | 143 | 0.0 | 4.0 | 0.00 | 0.00 | 0.01 | 97 | |
| 20260905130809 | 76 | 142 | 0.0 | 2.0 | 0.00 | 0.00 | 0.01 | 97 | |
| 20260905125909 | 76 | 142 | 0.0 | 1.0 | 0.00 | 0.00 | 0.01 | 97 | |
| 20260905125009 | 76 | 150 | 0.0 | 2.0 | 0.00 | 0.00 | 0.01 | 97 | |
| 20260905124109 | 75 | 141 | 0.0 | 4.0 | 0.00 | 0.00 | 0.01 | 97 | |
| 20260905123209 | 75 | 0 | 0.0 | 0.0 | 0.00 | 0.00 | 0.01 | 97 | |
| 20260905122309 | 75 | 0 | 0.0 | 0.0 | 0.00 | 0.00 | 0.01 | 97 | |
| 20260905121410 | 75 | 0 | 0.0 | 0.0 | 0.00 | 0.00 | 0.01 | 97 | |
| 20260905120509 | 75 | 0 | 0.0 | 0.0 | 0.00 | 0.00 | 0.01 | 97 |